Hakozaki Maru — JJ3662 — position and weather

sailwx.info

Track history (hours):
 
Tides and Currents Weather Stations Pressure Air Temp Water Temp Dewpoint Dewpoint Depression Visibility Wind Speed Wind Dir Waves Ship Positions

Hakozaki Maru

Last reported at 2015-Aug-04 04:30 UTC. Time now 2015-Aug-04 22:03 UTC.
Position N 34°41' E 135°13'.

Length 31 m; draft 2.5 m.

Type: Tug. MMSI: 431000322.

Date/timePositionNaut miles runAvg speedWind from/ knotsBaromVisibWave heightAir tempDewpointWater temp
2015-Aug-04 04:30N 34°41' E 135°13'1 1.4
2015-Aug-04 03:33N 34°41' E 135°15'2 1.6
2015-Aug-04 02:33N 34°41' E 135°13'0 0.4
2015-Aug-04 01:31N 34°41' E 135°12'0 0.0
2015-Aug-04 00:31N 34°41' E 135°12'  
2015-Jul-29 22:29N 34°42' E 135°16'0 0.2
2015-Jul-29 21:33N 34°42' E 135°16'3 3.0
2015-Jul-29 20:32N 34°41' E 135°12'1 0.1
2015-Jul-29 07:03N 34°41' E 135°13'1 1.5
2015-Jul-29 06:33N 34°40' E 135°14'1 1.1
2015-Jul-29 05:33N 34°41' E 135°13'0 0.3
2015-Jul-29 04:30N 34°41' E 135°12'0 0.0
2015-Jul-29 03:24N 34°41' E 135°12'0 0.0
2015-Jul-29 02:30N 34°41' E 135°12'0 0.0
2015-Jul-29 01:30N 34°41' E 135°12'0 0.0
2015-Jul-29 00:24N 34°41' E 135°12'0 0.0
2015-Jul-28 23:18N 34°41' E 135°12'0 0.0
2015-Jul-28 22:33N 34°41' E 135°12'3 2.7
2015-Jul-28 21:33N 34°40' E 135°15'2 2.5
2015-Jul-28 20:34N 34°41' E 135°13'0 0.0
2015-Jul-27 05:33N 34°41' E 135°12'0 0.0
2015-Jul-27 04:33N 34°41' E 135°12'0 0.0
2015-Jul-27 03:21N 34°41' E 135°12'0 0.0
2015-Jul-27 02:33N 34°41' E 135°12'0 0.0
2015-Jul-27 01:33N 34°41' E 135°12'0 0.0
2015-Jul-27 00:33N 34°41' E 135°12'0 0.0
2015-Jul-26 23:33N 34°41' E 135°12'3 2.7
2015-Jul-26 22:33N 34°42' E 135°15'2 1.7
2015-Jul-26 21:33N 34°41' E 135°14'1 0.0
2015-Jul-25 06:19N 34°41' E 135°13'3 4.3
2015-Jul-25 05:32N 34°42' E 135°17'0 0.0
2015-Jul-25 04:32N 34°42' E 135°17'  
Track history (hours):
 
Tides and Currents Weather Stations Pressure Air Temp Water Temp Dewpoint Dewpoint Depression Visibility Wind Speed Wind Dir Waves Ship Positions

Hakozaki Maru

Last reported at 2015-Aug-04 04:30 UTC. Time now 2015-Aug-04 22:03 UTC.
Position N 34°41' E 135°13'.

Length 31 m; draft 2.5 m.

Type: Tug. MMSI: 431000322.

Date/timePositionNaut miles runAvg speedWind from/ knotsBaromVisibWave heightAir tempDewpointWater temp
2015-Aug-04 04:30N 34°41' E 135°13'1 1.4
2015-Aug-04 03:33N 34°41' E 135°15'2 1.6
2015-Aug-04 02:33N 34°41' E 135°13'0 0.4
2015-Aug-04 01:31N 34°41' E 135°12'0 0.0
2015-Aug-04 00:31N 34°41' E 135°12'  
2015-Jul-29 22:29N 34°42' E 135°16'0 0.2
2015-Jul-29 21:33N 34°42' E 135°16'3 3.0
2015-Jul-29 20:32N 34°41' E 135°12'1 0.1
2015-Jul-29 07:03N 34°41' E 135°13'1 1.5
2015-Jul-29 06:33N 34°40' E 135°14'1 1.1
2015-Jul-29 05:33N 34°41' E 135°13'0 0.3
2015-Jul-29 04:30N 34°41' E 135°12'0 0.0
2015-Jul-29 03:24N 34°41' E 135°12'0 0.0
2015-Jul-29 02:30N 34°41' E 135°12'0 0.0
2015-Jul-29 01:30N 34°41' E 135°12'0 0.0
2015-Jul-29 00:24N 34°41' E 135°12'0 0.0
2015-Jul-28 23:18N 34°41' E 135°12'0 0.0
2015-Jul-28 22:33N 34°41' E 135°12'3 2.7
2015-Jul-28 21:33N 34°40' E 135°15'2 2.5
2015-Jul-28 20:34N 34°41' E 135°13'0 0.0
2015-Jul-27 05:33N 34°41' E 135°12'0 0.0
2015-Jul-27 04:33N 34°41' E 135°12'0 0.0
2015-Jul-27 03:21N 34°41' E 135°12'0 0.0
2015-Jul-27 02:33N 34°41' E 135°12'0 0.0
2015-Jul-27 01:33N 34°41' E 135°12'0 0.0
2015-Jul-27 00:33N 34°41' E 135°12'0 0.0
2015-Jul-26 23:33N 34°41' E 135°12'3 2.7
2015-Jul-26 22:33N 34°42' E 135°15'2 1.7
2015-Jul-26 21:33N 34°41' E 135°14'1 0.0
2015-Jul-25 06:19N 34°41' E 135°13'3 4.3
2015-Jul-25 05:32N 34°42' E 135°17'0 0.0
2015-Jul-25 04:32N 34°42' E 135°17'  

Dump ship's entire track history